createdAt,value
2022-11-19T00:00:46.897Z,8.00
2022-11-19T00:03:14.272Z,8.00
2022-11-19T00:05:41.520Z,8.00
2022-11-19T00:08:08.391Z,8.00
2022-11-19T00:10:36.013Z,8.00
2022-11-19T00:13:03.595Z,8.00
2022-11-19T00:15:31.400Z,8.00
2022-11-19T00:17:58.376Z,8.00
2022-11-19T00:20:25.094Z,8.00
2022-11-19T00:22:55.397Z,8.00
2022-11-19T00:25:22.079Z,8.00
2022-11-19T00:27:48.749Z,8.00
2022-11-19T00:30:40.661Z,8.10
2022-11-19T00:33:02.396Z,8.10
2022-11-19T00:35:29.061Z,8.10
2022-11-19T00:37:55.714Z,8.10
2022-11-19T00:40:22.359Z,8.10
2022-11-19T00:43:08.992Z,8.10
2022-11-19T00:45:35.663Z,8.10
2022-11-19T00:48:02.298Z,8.20
2022-11-19T00:50:29.038Z,8.10
2022-11-19T00:52:55.806Z,8.10
2022-11-19T00:55:22.497Z,8.10
2022-11-19T00:57:49.127Z,8.10
2022-11-19T01:00:16.434Z,8.10
2022-11-19T01:02:43.163Z,8.10
2022-11-19T01:05:09.819Z,8.00
2022-11-19T01:07:36.535Z,8.00
2022-11-19T01:10:03.354Z,8.00
2022-11-19T01:12:29.993Z,8.00
2022-11-19T01:14:56.654Z,7.90
2022-11-19T01:17:23.307Z,7.80
2022-11-19T01:19:49.967Z,7.80
2022-11-19T01:22:16.630Z,7.80
2022-11-19T01:24:43.340Z,7.80
2022-11-19T01:27:09.981Z,7.80
2022-11-19T01:29:36.662Z,7.80
2022-11-19T01:32:03.332Z,7.90
2022-11-19T01:34:29.990Z,7.80
2022-11-19T01:36:56.650Z,7.90
2022-11-19T01:39:23.289Z,7.90
2022-11-19T01:41:49.960Z,7.90
2022-11-19T01:44:54.288Z,7.90
2022-11-19T01:47:20.987Z,7.90
2022-11-19T01:49:47.645Z,7.90
2022-11-19T01:52:14.295Z,7.90
2022-11-19T01:54:43.780Z,7.90
2022-11-19T01:57:13.147Z,7.90
2022-11-19T01:59:39.819Z,8.00
2022-11-19T02:02:06.561Z,8.00
2022-11-19T02:04:33.324Z,8.00
2022-11-19T02:07:00.012Z,8.00
2022-11-19T02:09:26.724Z,7.90
2022-11-19T02:12:08.448Z,7.90
2022-11-19T02:15:13.041Z,7.80
2022-11-19T02:18:15.267Z,7.80
2022-11-19T02:20:41.973Z,7.70
2022-11-19T02:23:32.935Z,7.70
2022-11-19T02:26:44.039Z,7.70
2022-11-19T02:29:19.804Z,7.60
2022-11-19T02:32:04.570Z,7.60
2022-11-19T02:34:40.239Z,7.60
2022-11-19T02:37:21.083Z,7.60
2022-11-19T02:39:49.301Z,7.50
2022-11-19T02:42:38.129Z,7.50
2022-11-19T02:45:22.755Z,7.50
2022-11-19T02:47:59.017Z,7.50
2022-11-19T02:50:54.945Z,7.50
2022-11-19T02:53:22.221Z,7.50
2022-11-19T02:56:08.984Z,7.40
2022-11-19T02:59:07.327Z,7.50
2022-11-19T03:01:52.593Z,7.40
2022-11-19T03:04:31.355Z,7.50
2022-11-19T03:07:04.679Z,7.50
2022-11-19T03:09:32.063Z,7.50
2022-11-19T03:12:16.076Z,7.50
2022-11-19T03:15:26.652Z,7.50
2022-11-19T03:17:53.251Z,7.50
2022-11-19T03:20:55.180Z,7.50
2022-11-19T03:23:23.128Z,7.50
2022-11-19T03:25:54.385Z,7.40
2022-11-19T03:28:24.167Z,7.40
2022-11-19T03:30:51.074Z,7.40
2022-11-19T03:33:27.008Z,7.30
2022-11-19T03:35:56.014Z,7.30
2022-11-19T03:38:31.616Z,7.30
2022-11-19T03:40:58.312Z,7.20
2022-11-19T03:43:27.789Z,7.20
2022-11-19T03:45:54.581Z,7.20
2022-11-19T03:48:21.303Z,7.20
2022-11-19T03:50:59.852Z,7.10
2022-11-19T03:53:26.605Z,7.10
2022-11-19T03:55:57.224Z,7.10
2022-11-19T03:58:24.998Z,7.10
2022-11-19T04:00:51.784Z,7.10
2022-11-19T04:03:18.632Z,7.10
2022-11-19T04:05:45.296Z,7.10
2022-11-19T04:08:11.954Z,7.00
2022-11-19T04:10:38.735Z,7.10
2022-11-19T04:13:05.396Z,7.00
2022-11-19T04:15:32.109Z,7.10
2022-11-19T04:17:58.767Z,7.10
2022-11-19T04:20:25.431Z,7.10
2022-11-19T04:22:52.170Z,7.10
2022-11-19T04:25:18.834Z,7.10
2022-11-19T04:27:46.408Z,7.10
2022-11-19T04:30:13.830Z,7.10
2022-11-19T04:32:40.749Z,7.10
2022-11-19T04:35:07.779Z,7.20
2022-11-19T04:37:34.535Z,7.20
2022-11-19T04:40:01.192Z,7.20
2022-11-19T04:42:27.929Z,7.20
2022-11-19T04:44:54.576Z,7.20
2022-11-19T04:47:21.253Z,7.20
2022-11-19T04:49:47.903Z,7.20
2022-11-19T04:52:14.592Z,7.20
2022-11-19T04:54:41.276Z,7.20
2022-11-19T04:57:07.943Z,7.20
2022-11-19T04:59:34.594Z,7.30
2022-11-19T05:02:01.379Z,7.20
2022-11-19T05:04:28.089Z,7.30
2022-11-19T05:06:54.837Z,7.30
2022-11-19T05:09:21.851Z,7.30
2022-11-19T05:11:48.772Z,7.30
2022-11-19T05:14:15.431Z,7.20
2022-11-19T05:16:42.183Z,7.30
2022-11-19T05:19:08.847Z,7.30
2022-11-19T05:21:35.520Z,7.30
2022-11-19T05:24:02.154Z,7.30
2022-11-19T05:26:28.805Z,7.30
2022-11-19T05:28:55.452Z,7.30
2022-11-19T05:31:22.195Z,7.30
2022-11-19T05:33:48.901Z,7.30
2022-11-19T05:36:15.568Z,7.30
2022-11-19T05:38:42.406Z,7.30
2022-11-19T05:41:09.100Z,7.30
2022-11-19T05:43:35.773Z,7.30
2022-11-19T05:46:02.515Z,7.30
2022-11-19T05:48:29.743Z,7.30
2022-11-19T05:50:56.443Z,7.40
2022-11-19T05:53:23.134Z,7.40
2022-11-19T05:55:49.787Z,7.40
2022-11-19T05:58:16.443Z,7.50
2022-11-19T06:00:43.130Z,7.50
2022-11-19T06:03:10.348Z,7.50
2022-11-19T06:05:40.352Z,7.50
2022-11-19T06:08:07.477Z,7.50
2022-11-19T06:10:34.143Z,7.50
2022-11-19T06:13:01.215Z,7.50
2022-11-19T06:15:27.900Z,7.50
2022-11-19T06:17:56.257Z,7.50
2022-11-19T06:20:22.919Z,7.50
2022-11-19T06:22:49.589Z,7.50
2022-11-19T06:25:16.371Z,7.60
2022-11-19T06:27:43.184Z,7.50
2022-11-19T06:30:10.618Z,7.60
2022-11-19T06:32:37.344Z,7.60
2022-11-19T06:35:04.132Z,7.60
2022-11-19T06:37:30.810Z,7.60
2022-11-19T06:39:57.489Z,7.60
2022-11-19T06:42:36.068Z,7.60
2022-11-19T06:45:04.658Z,7.60
2022-11-19T06:47:32.151Z,7.50
2022-11-19T06:49:58.864Z,7.60
2022-11-19T06:52:25.765Z,7.60
2022-11-19T06:54:52.438Z,7.60
2022-11-19T06:57:19.150Z,7.60
2022-11-19T06:59:45.815Z,7.60
2022-11-19T07:02:12.662Z,7.70
2022-11-19T07:04:39.418Z,7.60
2022-11-19T07:07:06.274Z,7.60
2022-11-19T07:09:33.000Z,7.60
2022-11-19T07:11:59.655Z,7.60
2022-11-19T07:14:26.361Z,7.60
2022-11-19T07:16:53.040Z,7.60
2022-11-19T07:19:19.972Z,7.60
2022-11-19T07:21:47.556Z,7.60
2022-11-19T07:24:15.888Z,7.60
2022-11-19T07:26:42.601Z,7.60
2022-11-19T07:29:10.489Z,7.60
2022-11-19T07:31:37.182Z,7.60
2022-11-19T07:34:07.475Z,7.70
2022-11-19T07:36:35.516Z,7.70
2022-11-19T07:39:03.420Z,7.70
2022-11-19T07:41:49.370Z,7.70
2022-11-19T07:44:16.743Z,7.80
2022-11-19T07:46:43.895Z,7.80
2022-11-19T07:49:11.060Z,7.90
2022-11-19T07:51:38.441Z,7.90
2022-11-19T07:54:05.783Z,7.80
2022-11-19T07:56:32.784Z,7.90
2022-11-19T07:59:00.677Z,7.90
2022-11-19T08:01:27.907Z,7.80
2022-11-19T08:03:56.769Z,7.80
2022-11-19T08:06:25.453Z,7.80
2022-11-19T08:08:52.509Z,7.80
2022-11-19T08:11:19.341Z,7.90
2022-11-19T08:13:46.354Z,7.80
2022-11-19T08:16:34.603Z,7.80
2022-11-19T08:19:03.002Z,7.80
2022-11-19T08:21:30.322Z,7.80
2022-11-19T08:23:57.707Z,7.80
2022-11-19T08:26:24.550Z,7.80
2022-11-19T08:28:54.065Z,7.90
2022-11-19T08:31:21.128Z,7.90
2022-11-19T08:33:48.673Z,8.00
2022-11-19T08:36:15.718Z,8.10
2022-11-19T08:38:42.746Z,8.20
2022-11-19T08:41:28.670Z,8.20
2022-11-19T08:43:56.042Z,8.20
2022-11-19T08:46:23.221Z,8.30
2022-11-19T08:48:50.445Z,8.30
2022-11-19T08:51:17.179Z,8.30
2022-11-19T08:53:44.248Z,8.30
2022-11-19T08:56:15.326Z,8.20
2022-11-19T08:58:43.818Z,8.10
2022-11-19T09:01:11.244Z,8.00
2022-11-19T09:03:38.524Z,8.00
2022-11-19T09:06:05.810Z,8.10
2022-11-19T09:08:32.694Z,8.10
2022-11-19T09:10:59.384Z,8.20
2022-11-19T09:13:27.501Z,8.20
2022-11-19T09:15:55.763Z,8.30
2022-11-19T09:18:23.305Z,8.30
2022-11-19T09:20:55.196Z,8.30
2022-11-19T09:23:23.259Z,8.40
2022-11-19T09:26:03.739Z,8.40
2022-11-19T09:28:30.389Z,8.40
2022-11-19T09:31:02.082Z,8.40
2022-11-19T09:38:36.466Z,8.50
2022-11-19T09:41:31.225Z,8.50
2022-11-19T09:44:00.951Z,8.40
2022-11-19T09:46:54.775Z,8.30
2022-11-19T09:49:33.953Z,8.30
2022-11-19T09:52:10.234Z,8.30
2022-11-19T09:54:50.261Z,8.30
2022-11-19T09:57:27.993Z,8.40
2022-11-19T09:59:55.845Z,8.40
2022-11-19T10:02:23.586Z,8.50
2022-11-19T10:04:55.495Z,8.60
2022-11-19T10:07:55.274Z,8.70
2022-11-19T10:10:47.562Z,8.90
2022-11-19T10:13:29.187Z,9.00
2022-11-19T10:16:08.421Z,8.90
2022-11-19T10:18:53.264Z,8.90
2022-11-19T10:21:45.275Z,8.80
2022-11-19T10:24:34.458Z,8.70
2022-11-19T10:27:08.627Z,8.70
2022-11-19T10:29:37.494Z,8.70
2022-11-19T10:32:35.767Z,8.70
2022-11-19T10:35:18.423Z,8.80
2022-11-19T10:38:02.379Z,8.80
2022-11-19T10:40:39.135Z,8.90
2022-11-19T10:43:28.629Z,8.90
2022-11-19T10:45:56.581Z,8.90
2022-11-19T10:48:49.352Z,8.90
2022-11-19T10:51:50.415Z,8.90
2022-11-19T10:54:47.375Z,8.90
2022-11-19T10:57:18.332Z,8.80
2022-11-19T11:00:11.537Z,8.80
2022-11-19T11:02:52.633Z,8.80
2022-11-19T11:05:20.714Z,8.80
2022-11-19T11:07:52.811Z,8.80
2022-11-19T11:10:35.576Z,8.70
2022-11-19T11:13:33.465Z,8.70
2022-11-19T11:16:05.467Z,8.70
2022-11-19T11:18:32.798Z,8.70
2022-11-19T11:21:00.265Z,8.70
2022-11-19T11:23:28.381Z,8.70
2022-11-19T11:26:12.123Z,8.80
2022-11-19T11:29:10.857Z,8.80
2022-11-19T11:31:42.203Z,8.80
2022-11-19T11:34:38.268Z,8.70
2022-11-19T11:37:09.009Z,8.70
2022-11-19T11:39:37.923Z,8.80
2022-11-19T11:42:07.010Z,8.80
2022-11-19T11:44:35.996Z,8.80
2022-11-19T11:47:05.033Z,8.80
2022-11-19T11:49:38.659Z,8.80
2022-11-19T11:52:09.628Z,8.80
2022-11-19T11:54:56.627Z,8.80
2022-11-19T11:57:52.488Z,8.90
2022-11-19T12:00:35.958Z,9.00
2022-11-19T12:03:04.780Z,9.00
2022-11-19T12:05:44.663Z,9.00
2022-11-19T12:08:34.905Z,9.10
2022-11-19T12:11:10.753Z,9.20
2022-11-19T12:13:52.530Z,9.30
2022-11-19T12:16:33.130Z,9.20
2022-11-19T12:19:35.351Z,9.20
2022-11-19T12:22:14.791Z,9.20
2022-11-19T12:24:53.861Z,9.20
2022-11-19T12:27:48.673Z,9.10
2022-11-19T12:30:20.626Z,9.20
2022-11-19T12:32:54.245Z,9.20
2022-11-19T12:35:33.024Z,9.20
2022-11-19T12:38:32.023Z,9.20
2022-11-19T12:41:16.793Z,9.20
2022-11-19T12:43:56.406Z,9.20
2022-11-19T12:46:51.566Z,9.30
2022-11-19T12:49:25.362Z,9.30
2022-11-19T12:52:10.480Z,9.30
2022-11-19T12:54:58.506Z,9.50
2022-11-19T12:57:40.845Z,9.80
2022-11-19T13:00:40.998Z,9.80
2022-11-19T13:03:15.000Z,9.90
2022-11-19T13:05:50.074Z,10.00
2022-11-19T13:09:08.567Z,10.40
2022-11-19T13:11:48.043Z,10.70
2022-11-19T13:14:36.588Z,10.30
2022-11-19T13:17:06.436Z,10.00
2022-11-19T13:19:34.878Z,9.80
2022-11-19T13:22:19.968Z,9.70
2022-11-19T13:24:54.406Z,9.60
2022-11-19T13:27:23.643Z,9.40
2022-11-19T13:29:58.463Z,9.40
2022-11-19T13:32:26.811Z,9.30
2022-11-19T13:35:13.640Z,9.30
2022-11-19T13:37:45.613Z,9.20
2022-11-19T13:40:29.736Z,9.00
2022-11-19T13:43:31.479Z,9.10
2022-11-19T13:46:11.083Z,9.10
2022-11-19T13:48:44.106Z,9.20
2022-11-19T13:51:51.924Z,9.20
2022-11-19T13:54:27.341Z,9.20
2022-11-19T13:56:57.327Z,9.20
2022-11-19T13:59:27.459Z,9.20
2022-11-19T14:01:55.705Z,9.30
2022-11-19T14:04:31.401Z,9.20
2022-11-19T14:07:16.693Z,9.20
2022-11-19T14:09:52.315Z,9.20
2022-11-19T14:12:57.302Z,9.20
2022-11-19T14:15:47.463Z,9.10
2022-11-19T14:18:43.359Z,9.10
2022-11-19T14:21:43.951Z,9.10
2022-11-19T14:24:44.630Z,9.10
2022-11-19T14:27:22.374Z,9.10
2022-11-19T14:29:49.086Z,9.10
2022-11-19T14:32:15.758Z,9.10
2022-11-19T14:35:00.495Z,9.10
2022-11-19T14:37:45.740Z,9.10
2022-11-19T14:40:13.496Z,9.00
2022-11-19T14:43:20.452Z,9.00
2022-11-19T14:46:05.319Z,9.00
2022-11-19T14:48:34.369Z,8.90
2022-11-19T14:51:18.105Z,8.90
2022-11-19T14:53:53.570Z,8.90
2022-11-19T14:56:21.118Z,8.90
2022-11-19T14:59:15.319Z,8.90
2022-11-19T15:02:03.876Z,8.80
2022-11-19T15:04:36.446Z,8.90
2022-11-19T15:07:08.365Z,8.80
2022-11-19T15:10:09.452Z,8.80
2022-11-19T15:12:51.037Z,8.80
2022-11-19T15:15:20.954Z,8.70
2022-11-19T15:18:02.445Z,8.70
2022-11-19T15:20:37.021Z,8.70
2022-11-19T15:23:12.343Z,8.70
2022-11-19T15:25:51.087Z,8.70
2022-11-19T15:28:35.981Z,8.60
2022-11-19T15:31:21.071Z,8.60
2022-11-19T15:34:02.778Z,8.60
2022-11-19T15:37:05.679Z,8.50
2022-11-19T15:39:37.126Z,8.50
2022-11-19T15:42:16.621Z,8.50
2022-11-19T15:45:01.868Z,8.50
2022-11-19T15:47:44.441Z,8.50
2022-11-19T15:50:36.803Z,8.50
2022-11-19T15:53:15.177Z,8.50
2022-11-19T15:56:10.330Z,8.40
2022-11-19T15:58:42.728Z,8.40
2022-11-19T16:01:23.506Z,8.30
2022-11-19T16:03:52.395Z,8.30
2022-11-19T16:06:24.022Z,8.20
2022-11-19T16:08:55.104Z,8.20
2022-11-19T16:11:42.359Z,8.20
2022-11-19T16:14:44.508Z,8.20
2022-11-19T16:17:43.219Z,8.10
2022-11-19T16:20:11.209Z,8.20
2022-11-19T16:22:57.906Z,8.20
2022-11-19T16:25:26.168Z,8.10
2022-11-19T16:27:55.713Z,8.10
2022-11-19T16:30:24.006Z,8.10
2022-11-19T16:32:51.402Z,8.10
2022-11-19T16:35:26.858Z,8.10
2022-11-19T16:37:54.168Z,8.10
2022-11-19T16:40:22.057Z,8.00
2022-11-19T16:42:54.166Z,8.00
2022-11-19T16:45:51.518Z,8.10
2022-11-19T16:48:40.049Z,8.10
2022-11-19T16:51:40.280Z,8.00
2022-11-19T16:54:09.639Z,8.10
2022-11-19T16:56:44.463Z,8.10
2022-11-19T16:59:19.810Z,8.10
2022-11-19T17:02:12.281Z,8.10
2022-11-19T17:04:39.287Z,8.10
2022-11-19T17:07:10.949Z,8.10
2022-11-19T17:09:43.859Z,8.10
2022-11-19T17:12:55.869Z,8.10
2022-11-19T17:15:33.524Z,8.10
2022-11-19T17:18:20.781Z,8.00
2022-11-19T17:20:52.661Z,8.00
2022-11-19T17:23:27.493Z,8.00
2022-11-19T17:26:02.287Z,8.00
2022-11-19T17:28:51.046Z,8.00
2022-11-19T17:31:28.709Z,8.00
2022-11-19T17:33:57.255Z,8.00
2022-11-19T17:36:27.687Z,8.00
2022-11-19T17:38:54.982Z,8.00
2022-11-19T17:41:45.312Z,8.00
2022-11-19T17:44:31.921Z,8.00
2022-11-19T17:46:58.936Z,8.00
2022-11-19T17:49:26.324Z,8.00
2022-11-19T17:51:55.227Z,8.00
2022-11-19T17:54:22.924Z,8.10
2022-11-19T17:56:49.745Z,8.00
2022-11-19T17:59:17.153Z,8.00
2022-11-19T18:01:44.707Z,8.00
2022-11-19T18:04:11.823Z,8.00
2022-11-19T18:06:39.021Z,8.00
2022-11-19T18:09:05.773Z,8.00
2022-11-19T18:11:32.574Z,8.00
2022-11-19T18:14:02.084Z,8.00
2022-11-19T18:16:31.596Z,8.00
2022-11-19T18:18:58.629Z,8.00
2022-11-19T18:21:27.166Z,8.00
2022-11-19T18:23:54.515Z,8.00
2022-11-19T18:26:24.824Z,8.00
2022-11-19T18:28:51.534Z,8.00
2022-11-19T18:31:44.796Z,7.90
2022-11-19T18:34:18.668Z,7.90
2022-11-19T18:36:46.105Z,7.90
2022-11-19T18:39:13.561Z,7.90
2022-11-19T18:41:40.587Z,7.90
2022-11-19T18:44:29.586Z,7.80
2022-11-19T18:46:57.078Z,7.80
2022-11-19T18:49:24.447Z,7.80
2022-11-19T18:51:51.146Z,7.90
2022-11-19T18:54:18.324Z,7.90
2022-11-19T18:56:45.530Z,7.90
2022-11-19T18:59:13.144Z,7.90
2022-11-19T19:01:40.238Z,7.90
2022-11-19T19:04:07.722Z,7.90
2022-11-19T19:06:34.901Z,7.90
2022-11-19T19:09:01.685Z,7.90
2022-11-19T19:11:47.456Z,7.90
2022-11-19T19:14:14.981Z,7.90
2022-11-19T19:16:42.469Z,7.90
2022-11-19T19:19:17.254Z,8.00
2022-11-19T19:21:44.355Z,7.90
2022-11-19T19:24:12.308Z,7.90
2022-11-19T19:26:39.234Z,7.90
2022-11-19T19:29:06.585Z,8.00
2022-11-19T19:31:33.655Z,8.00
2022-11-19T19:34:00.741Z,7.90
2022-11-19T19:36:28.274Z,7.90
2022-11-19T19:38:55.687Z,7.90
2022-11-19T19:41:26.417Z,7.90
2022-11-19T19:43:54.334Z,7.90
2022-11-19T19:46:22.442Z,7.90
2022-11-19T19:48:53.596Z,7.90
2022-11-19T19:51:21.286Z,7.90
2022-11-19T19:53:48.839Z,7.90
2022-11-19T19:56:20.359Z,7.90
2022-11-19T19:58:47.178Z,7.90
2022-11-19T20:01:16.232Z,7.90
2022-11-19T20:03:44.059Z,7.90
2022-11-19T20:06:12.281Z,7.90
2022-11-19T20:08:40.728Z,7.90
2022-11-19T20:11:38.159Z,8.00
2022-11-19T20:14:05.708Z,8.00
2022-11-19T20:16:33.444Z,8.00
2022-11-19T20:19:00.555Z,8.00
2022-11-19T20:21:33.621Z,7.90
2022-11-19T20:24:00.795Z,7.90
2022-11-19T20:26:28.929Z,7.90
2022-11-19T20:29:00.947Z,7.90
2022-11-19T20:31:28.490Z,7.90
2022-11-19T20:33:59.958Z,7.80
2022-11-19T20:36:28.329Z,7.80
2022-11-19T20:38:57.321Z,7.80
2022-11-19T20:41:43.645Z,7.80
2022-11-19T20:44:20.372Z,7.80
2022-11-19T20:46:54.156Z,7.80
2022-11-19T20:49:26.001Z,7.80
2022-11-19T20:51:53.413Z,7.80
2022-11-19T20:54:21.403Z,7.80
2022-11-19T20:56:49.347Z,7.70
2022-11-19T20:59:16.246Z,7.70
2022-11-19T21:01:43.749Z,7.80
2022-11-19T21:04:11.258Z,7.80
2022-11-19T21:06:38.635Z,7.80
2022-11-19T21:09:05.519Z,7.80
2022-11-19T21:11:36.411Z,7.80
2022-11-19T21:14:03.855Z,7.80
2022-11-19T21:16:31.716Z,7.80
2022-11-19T21:18:58.473Z,7.80
2022-11-19T21:21:25.609Z,7.80
2022-11-19T21:23:52.654Z,7.90
2022-11-19T21:26:21.449Z,7.80
2022-11-19T21:28:56.420Z,7.80
2022-11-19T21:31:37.860Z,7.80
2022-11-19T21:34:06.277Z,7.80
2022-11-19T21:36:33.218Z,7.80
2022-11-19T21:39:01.547Z,7.80
2022-11-19T21:41:29.181Z,7.80
2022-11-19T21:43:56.598Z,7.80
2022-11-19T21:46:23.789Z,7.80
2022-11-19T21:48:51.873Z,7.80
2022-11-19T21:51:24.330Z,7.80
2022-11-19T21:53:55.854Z,7.70
2022-11-19T21:56:23.423Z,7.70
2022-11-19T21:58:50.410Z,7.70
2022-11-19T22:01:17.303Z,7.70
2022-11-19T22:03:44.398Z,7.70
2022-11-19T22:06:11.473Z,7.70
2022-11-19T22:08:40.887Z,7.70
2022-11-19T22:11:26.487Z,7.70
2022-11-19T22:13:53.495Z,7.70
2022-11-19T22:16:20.449Z,7.70
2022-11-19T22:18:47.313Z,7.70
2022-11-19T22:21:14.890Z,7.70
2022-11-19T22:23:41.938Z,7.70
2022-11-19T22:26:09.718Z,7.70
2022-11-19T22:28:37.033Z,7.70
2022-11-19T22:31:04.327Z,7.70
2022-11-19T22:33:31.708Z,7.70
2022-11-19T22:35:59.407Z,7.70
2022-11-19T22:38:26.894Z,7.70
2022-11-19T22:40:54.290Z,7.70
2022-11-19T22:43:24.331Z,7.70
2022-11-19T22:45:51.586Z,7.70
2022-11-19T22:48:18.650Z,7.70
2022-11-19T22:50:45.725Z,7.60
2022-11-19T22:53:13.083Z,7.70
2022-11-19T22:55:39.830Z,7.70
2022-11-19T22:58:06.899Z,7.60
2022-11-19T23:00:38.036Z,7.60
2022-11-19T23:03:04.764Z,7.60
2022-11-19T23:05:36.865Z,7.60
2022-11-19T23:08:05.723Z,7.70
2022-11-19T23:10:35.008Z,7.60
2022-11-19T23:13:20.847Z,7.70
2022-11-19T23:16:09.918Z,7.60
2022-11-19T23:18:41.754Z,7.70
2022-11-19T23:21:15.946Z,7.60
2022-11-19T23:23:42.761Z,7.70
2022-11-19T23:26:11.174Z,7.70
2022-11-19T23:28:38.201Z,7.70
2022-11-19T23:31:17.191Z,7.70
2022-11-19T23:33:44.106Z,7.70
2022-11-19T23:36:12.396Z,7.60
2022-11-19T23:38:39.566Z,7.60
2022-11-19T23:41:07.793Z,7.60
2022-11-19T23:43:34.968Z,7.70
2022-11-19T23:46:29.112Z,7.70
2022-11-19T23:48:57.011Z,7.70
2022-11-19T23:51:25.498Z,7.70
2022-11-19T23:53:52.799Z,7.70
2022-11-19T23:56:20.161Z,7.70
2022-11-19T23:58:47.243Z,7.70
